Time;durP1;ratioP1;P1;durP2;ratioP2;P2;SDS_P1;SDS_P2;PMS_P1;PMS_P2;Temp;Humidity;BMP_temperature;BMP_pressure;BME280_temperature;BME280_humidity;BME280_pressure;Samples;Min_cycle;Max_cycle;Signal;HPM_P1;HPM_P2
2022/09/08 00:00:30;;;;;;;4.67;2.30;;;22.70;95.40;;;;;;7387395;19;20463;-49
2022/09/08 00:03:03;;;;;;;2.57;2.07;;;22.60;95.60;;;;;;7391416;19;20906;-49
2022/09/08 00:05:36;;;;;;;2.83;2.43;;;22.50;96.60;;;;;;7388431;19;20388;-49
2022/09/08 00:08:09;;;;;;;4.10;2.50;;;22.60;96.20;;;;;;7387723;19;20380;-49
2022/09/08 00:10:40;;;;;;;5.17;3.00;;;22.40;98.00;;;;;;7388631;19;20422;-49
2022/09/08 00:13:12;;;;;;;3.77;2.80;;;22.50;97.90;;;;;;7387340;19;20383;-49
2022/09/08 00:15:42;;;;;;;7.13;2.90;;;22.60;98.60;;;;;;7388282;19;20407;-49
2022/09/08 00:18:11;;;;;;;6.80;3.00;;;22.40;99.70;;;;;;7387966;19;21019;-49
2022/09/08 00:20:41;;;;;;;4.23;2.90;;;22.40;99.90;;;;;;7388139;19;20384;-49
2022/09/08 00:23:11;;;;;;;2.47;2.23;;;22.40;99.90;;;;;;7389812;19;20372;-48
2022/09/08 00:25:40;;;;;;;4.47;2.30;;;22.40;99.90;;;;;;7386873;19;20372;-48
2022/09/08 00:28:14;;;;;;;4.03;2.70;;;22.30;99.90;;;;;;7387038;19;20898;-48
2022/09/08 00:30:43;;;;;;;5.00;2.90;;;22.20;99.90;;;;;;7387407;19;20911;-56
2022/09/08 00:33:13;;;;;;;3.33;3.00;;;22.10;99.90;;;;;;7387357;19;20476;-55
2022/09/08 00:35:45;;;;;;;3.43;2.40;;;22.20;99.90;;;;;;7388705;19;20368;-56
2022/09/08 00:38:16;;;;;;;5.20;2.57;;;22.20;99.90;;;;;;7387823;19;20372;-56
2022/09/08 00:40:49;;;;;;;7.40;2.60;;;22.40;99.90;;;;;;7388135;19;20376;-56
2022/09/08 00:43:36;;;;;;;3.07;2.57;;;22.70;99.90;;;;;;7387081;19;20858;-56
2022/09/08 00:46:22;;;;;;;3.73;2.97;;;22.80;99.90;;;;;;7389274;19;20380;-56
2022/09/08 00:48:56;;;;;;;5.17;3.00;;;22.70;99.90;;;;;;7387236;19;20405;-56
2022/09/08 00:51:27;;;;;;;7.30;3.67;;;22.70;99.90;;;;;;7386819;19;20368;-56
2022/09/08 00:53:58;;;;;;;3.47;2.70;;;22.70;99.90;;;;;;7388929;19;20392;-55
2022/09/08 00:56:30;;;;;;;3.33;3.03;;;22.40;99.90;;;;;;7388847;19;20406;-56
2022/09/08 00:59:03;;;;;;;4.97;3.17;;;22.40;99.90;;;;;;7387456;19;20416;-56
2022/09/08 01:01:34;;;;;;;4.33;3.40;;;22.40;99.90;;;;;;7385293;19;20466;-48
2022/09/08 01:04:06;;;;;;;4.83;2.80;;;22.30;99.90;;;;;;7388676;19;20467;-48
2022/09/08 01:15:18;;;;;;;4.67;2.90;;;22.10;99.90;;;;;;7386189;19;20424;-48
2022/09/08 01:17:49;;;;;;;4.50;2.50;;;21.80;99.90;;;;;;7386701;19;20931;-48
2022/09/08 01:20:21;;;;;;;7.87;3.80;;;21.70;99.90;;;;;;7385276;19;20366;-48
2022/09/08 01:23:15;;;;;;;3.33;3.03;;;21.60;99.90;;;;;;7386707;19;20414;-47
2022/09/08 01:26:08;;;;;;;6.87;3.20;;;21.60;99.90;;;;;;7384798;19;20383;-48
2022/09/08 01:28:48;;;;;;;3.60;3.30;;;21.40;99.90;;;;;;7387575;19;20376;-48
2022/09/08 01:31:19;;;;;;;3.73;3.20;;;21.40;99.90;;;;;;7387587;19;20412;-48
2022/09/08 01:33:48;;;;;;;5.03;3.97;;;21.40;99.90;;;;;;7385416;19;21563;-47
2022/09/08 01:36:19;;;;;;;8.10;3.40;;;21.40;99.90;;;;;;7384484;19;20424;-48
2022/09/08 01:38:48;;;;;;;5.77;3.70;;;21.40;99.90;;;;;;7385642;19;21004;-48
2022/09/08 01:41:18;;;;;;;4.60;3.30;;;21.50;99.90;;;;;;7386796;19;20415;-48
2022/09/08 01:43:50;;;;;;;3.93;3.10;;;21.30;99.90;;;;;;7385024;19;20387;-48
2022/09/08 01:46:22;;;;;;;5.60;4.13;;;21.30;99.90;;;;;;7385731;19;20376;-48
2022/09/08 01:48:51;;;;;;;4.90;3.50;;;21.20;99.90;;;;;;7384931;19;20383;-47
2022/09/08 01:51:23;;;;;;;6.43;3.47;;;21.20;99.90;;;;;;7383916;19;20380;-48
2022/09/08 01:53:52;;;;;;;3.80;3.50;;;21.10;99.90;;;;;;7382920;19;20451;-48
2022/09/08 01:56:22;;;;;;;6.43;3.90;;;21.10;99.90;;;;;;7384786;19;20487;-47
2022/09/08 01:58:57;;;;;;;5.17;3.53;;;20.80;99.90;;;;;;7385506;19;20691;-48
2022/09/08 02:01:26;;;;;;;6.60;3.60;;;21.00;99.90;;;;;;7381012;19;20428;-55
2022/09/08 02:03:56;;;;;;;6.83;3.33;;;20.90;99.90;;;;;;7386211;19;20990;-55
2022/09/08 02:06:28;;;;;;;5.17;3.50;;;21.00;99.90;;;;;;7384337;19;20387;-55
2022/09/08 02:08:57;;;;;;;4.43;3.00;;;21.00;99.90;;;;;;7384796;19;20770;-55
2022/09/08 02:11:27;;;;;;;4.00;3.07;;;21.00;99.90;;;;;;7382129;19;20376;-56
2022/09/08 02:14:02;;;;;;;3.07;2.30;;;21.20;99.90;;;;;;7385964;19;20456;-55
2022/09/08 02:16:32;;;;;;;5.10;2.40;;;21.30;99.90;;;;;;7383736;19;20368;-56
2022/09/08 02:19:01;;;;;;;2.80;2.10;;;21.30;99.90;;;;;;7385290;19;20785;-56
2022/09/08 02:21:31;;;;;;;3.40;2.10;;;21.30;99.90;;;;;;7386371;19;20443;-56
2022/09/08 02:24:00;;;;;;;3.90;2.27;;;21.30;99.90;;;;;;7383571;19;20972;-54
2022/09/08 02:26:31;;;;;;;5.93;2.57;;;21.30;99.90;;;;;;7384866;19;20451;-56
2022/09/08 02:29:03;;;;;;;7.30;2.10;;;21.30;99.90;;;;;;7383837;19;20511;-55
2022/09/08 02:31:33;;;;;;;2.40;1.70;;;21.20;99.90;;;;;;7384379;19;20763;-48
2022/09/08 02:34:02;;;;;;;2.30;2.10;;;21.10;99.90;;;;;;7381271;19;20455;-48
2022/09/08 02:36:35;;;;;;;2.30;1.80;;;21.30;99.90;;;;;;7383792;19;20376;-48
2022/09/08 02:39:04;;;;;;;3.37;1.63;;;21.20;99.90;;;;;;7382856;19;20376;-48
2022/09/08 02:41:33;;;;;;;2.00;1.50;;;21.10;99.90;;;;;;7383027;19;20417;-48
2022/09/08 02:44:06;;;;;;;2.43;1.90;;;21.00;99.90;;;;;;7383351;19;20398;-48
2022/09/08 02:46:35;;;;;;;2.10;1.70;;;21.10;99.90;;;;;;7384437;19;20697;-47
2022/09/08 02:49:04;;;;;;;3.17;1.67;;;20.90;99.90;;;;;;7389580;19;20394;-47
2022/09/08 02:51:34;;;;;;;1.83;1.43;;;20.90;99.90;;;;;;7389631;19;20372;-48
2022/09/08 02:54:03;;;;;;;2.83;1.50;;;21.10;99.90;;;;;;7390561;19;20423;-48
2022/09/08 02:56:33;;;;;;;2.57;1.90;;;21.30;99.90;;;;;;7391389;19;20809;-48
2022/09/08 02:59:05;;;;;;;2.83;1.60;;;21.30;99.90;;;;;;7390808;19;20723;-48
2022/09/08 03:01:34;;;;;;;2.23;1.60;;;21.40;99.90;;;;;;7385869;19;20973;-48
2022/09/08 03:04:05;;;;;;;3.17;1.80;;;21.30;99.90;;;;;;7390616;19;20905;-48
2022/09/08 03:06:37;;;;;;;6.07;1.90;;;21.20;99.90;;;;;;7387506;19;20674;-48
2022/09/08 03:09:07;;;;;;;1.90;1.70;;;21.20;99.90;;;;;;7392607;19;20459;-48
2022/09/08 03:11:36;;;;;;;1.70;1.30;;;21.30;99.90;;;;;;7390783;19;20384;-48
2022/09/08 03:14:09;;;;;;;3.47;1.57;;;21.20;99.90;;;;;;7389220;19;20970;-48
2022/09/08 03:16:39;;;;;;;2.77;2.50;;;21.20;99.90;;;;;;7391280;19;20384;-48
2022/09/08 03:19:09;;;;;;;1.40;1.30;;;21.10;99.90;;;;;;7391156;19;20380;-48
2022/09/08 03:21:39;;;;;;;2.57;1.40;;;20.90;99.90;;;;;;7389746;19;20376;-48
2022/09/08 03:24:08;;;;;;;2.80;1.50;;;20.90;99.90;;;;;;7389455;19;20379;-48
2022/09/08 03:26:38;;;;;;;2.97;1.23;;;20.80;99.90;;;;;;7390025;19;20971;-48
2022/09/08 03:29:10;;;;;;;1.80;1.60;;;20.80;99.90;;;;;;7392172;19;20386;-48
2022/09/08 03:31:40;;;;;;;2.80;1.00;;;20.80;99.90;;;;;;7390429;19;20368;-47
2022/09/08 03:34:09;;;;;;;1.47;1.20;;;20.70;99.90;;;;;;7388755;19;20419;-48
2022/09/08 03:36:39;;;;;;;1.30;0.93;;;20.80;99.90;;;;;;7389079;19;20380;-48
2022/09/08 03:39:11;;;;;;;1.70;0.93;;;21.10;99.90;;;;;;7388844;19;20767;-48
2022/09/08 03:41:40;;;;;;;2.77;1.00;;;21.30;99.90;;;;;;7390619;19;20898;-48
2022/09/08 03:44:13;;;;;;;2.60;1.30;;;21.20;99.90;;;;;;7389032;19;20913;-48
2022/09/08 03:46:42;;;;;;;1.83;1.10;;;21.20;99.90;;;;;;7390816;19;20380;-48
2022/09/08 03:49:13;;;;;;;2.70;0.83;;;21.20;99.90;;;;;;7388523;19;21016;-48
2022/09/08 03:51:42;;;;;;;1.43;1.20;;;21.20;99.90;;;;;;7389041;19;20447;-48
2022/09/08 03:56:56;;;;;;;1.30;1.20;;;21.20;99.90;;;;;;7390211;19;20384;-47
2022/09/08 03:59:28;;;;;;;1.40;1.20;;;21.10;99.90;;;;;;7389631;19;20482;-47
2022/09/08 04:01:58;;;;;;;1.00;0.90;;;21.00;99.90;;;;;;7386833;19;20435;-48
2022/09/08 04:04:30;;;;;;;5.03;1.30;;;21.00;99.90;;;;;;7388761;19;20966;-48
2022/09/08 04:06:59;;;;;;;1.37;0.90;;;21.00;99.90;;;;;;7387792;19;20407;-48
2022/09/08 04:09:29;;;;;;;1.00;0.90;;;20.90;99.90;;;;;;7388118;19;20751;-48
2022/09/08 04:11:59;;;;;;;1.13;0.70;;;20.80;99.90;;;;;;7389695;19;20372;-56
2022/09/08 04:14:31;;;;;;;1.00;0.90;;;20.60;99.90;;;;;;7388740;19;20364;-56
2022/09/08 04:17:00;;;;;;;1.73;0.70;;;20.50;99.90;;;;;;7389484;19;20389;-55
2022/09/08 04:19:30;;;;;;;2.40;0.83;;;20.40;99.90;;;;;;7388372;19;21102;-55
2022/09/08 04:21:59;;;;;;;4.90;0.97;;;20.50;99.90;;;;;;7388781;19;20906;-56
2022/09/08 04:24:29;;;;;;;4.80;0.90;;;20.70;99.90;;;;;;7388731;19;20484;-56
2022/09/08 04:26:59;;;;;;;2.00;1.17;;;20.80;99.90;;;;;;7387206;19;20950;-56
2022/09/08 04:29:31;;;;;;;0.90;0.70;;;20.70;99.90;;;;;;7389505;19;20420;-55
2022/09/08 04:32:00;;;;;;;1.10;1.00;;;20.60;99.90;;;;;;7386777;19;20391;-55
2022/09/08 04:34:32;;;;;;;1.77;0.90;;;20.50;99.90;;;;;;7388193;19;20376;-57
2022/09/08 04:37:02;;;;;;;3.30;1.00;;;20.60;99.90;;;;;;7386980;19;20376;-55
2022/09/08 04:39:33;;;;;;;0.80;0.60;;;20.80;99.90;;;;;;7388151;19;20467;-56
2022/09/08 04:42:03;;;;;;;1.23;0.87;;;20.50;99.90;;;;;;7387004;19;20937;-55
2022/09/08 04:44:35;;;;;;;1.07;0.90;;;20.50;99.90;;;;;;7389501;19;20405;-54
2022/09/08 04:47:04;;;;;;;0.87;0.80;;;20.60;99.90;;;;;;7387473;19;20408;-55
2022/09/08 04:49:34;;;;;;;3.20;0.90;;;20.70;99.90;;;;;;7386941;19;20380;-55
2022/09/08 04:52:03;;;;;;;1.20;1.10;;;20.70;99.90;;;;;;7388798;19;20408;-55
2022/09/08 04:54:32;;;;;;;3.43;1.40;;;20.80;99.90;;;;;;7388466;19;20902;-56
2022/09/08 04:57:02;;;;;;;2.60;0.90;;;20.70;99.90;;;;;;7386372;19;20428;-55
2022/09/08 04:59:34;;;;;;;1.10;0.80;;;20.60;99.90;;;;;;7388118;19;20402;-55
2022/09/08 05:02:03;;;;;;;1.23;0.87;;;20.50;99.90;;;;;;7384151;19;20461;-55
2022/09/08 05:04:37;;;;;;;1.73;1.00;;;20.60;99.90;;;;;;7387926;19;20451;-55
2022/09/08 05:07:06;;;;;;;3.13;0.80;;;20.60;99.90;;;;;;7383159;19;20384;-55
2022/09/08 05:09:36;;;;;;;1.10;1.00;;;20.70;99.90;;;;;;7388304;19;20372;-56
2022/09/08 05:12:08;;;;;;;3.27;1.00;;;20.70;99.90;;;;;;7384453;19;20384;-55
2022/09/08 05:14:43;;;;;;;10.40;5.10;;;20.70;99.90;;;;;;7387829;19;20393;-56
2022/09/08 05:17:12;;;;;;;8.23;7.07;;;20.80;99.90;;;;;;7385727;19;20389;-56
2022/09/08 05:19:41;;;;;;;3.23;2.50;;;20.90;99.90;;;;;;7386492;19;20372;-55
2022/09/08 05:22:11;;;;;;;1.60;0.97;;;21.00;99.90;;;;;;7386612;19;20375;-55
2022/09/08 05:24:40;;;;;;;3.17;1.20;;;20.90;99.90;;;;;;7388202;19;20432;-55
2022/09/08 05:27:10;;;;;;;3.80;0.93;;;20.90;99.90;;;;;;7387418;19;20428;-54
2022/09/08 05:29:39;;;;;;;2.23;1.60;;;20.90;99.90;;;;;;7387087;19;20372;-56
2022/09/08 05:32:11;;;;;;;1.10;0.80;;;21.00;99.90;;;;;;7382884;19;20381;-56
2022/09/08 05:34:41;;;;;;;2.33;1.00;;;21.00;99.90;;;;;;7387104;19;20929;-57
2022/09/08 05:37:11;;;;;;;2.10;1.43;;;20.60;99.90;;;;;;7385421;19;20728;-56
2022/09/08 05:39:41;;;;;;;2.13;1.13;;;20.70;99.90;;;;;;7381559;19;20390;-56
2022/09/08 05:42:10;;;;;;;2.40;1.00;;;20.80;99.90;;;;;;7386968;19;20387;-56
2022/09/08 05:44:39;;;;;;;2.07;1.10;;;20.60;99.90;;;;;;7386977;19;20914;-56
2022/09/08 05:47:11;;;;;;;0.93;0.77;;;20.60;99.90;;;;;;7384491;19;21457;-56
2022/09/08 05:49:41;;;;;;;2.10;1.67;;;20.80;99.90;;;;;;7384649;19;20416;-56
2022/09/08 05:52:11;;;;;;;1.57;1.20;;;20.60;99.90;;;;;;7385586;19;20384;-56
2022/09/08 05:54:40;;;;;;;1.57;1.13;;;20.70;99.90;;;;;;7385849;19;20412;-56
2022/09/08 05:57:10;;;;;;;1.23;0.70;;;20.80;99.90;;;;;;7383319;19;20912;-56
2022/09/08 05:59:40;;;;;;;1.63;0.87;;;20.70;99.90;;;;;;7383589;19;20414;-56
2022/09/08 06:02:13;;;;;;;1.80;0.90;;;20.70;99.90;;;;;;7382626;19;20785;-55
2022/09/08 06:04:43;;;;;;;1.17;1.07;;;20.70;99.90;;;;;;7386310;19;20431;-56
2022/09/08 06:07:12;;;;;;;1.20;0.57;;;20.70;99.90;;;;;;7383369;19;20417;-56
2022/09/08 06:09:42;;;;;;;0.80;0.53;;;20.60;99.90;;;;;;7385149;19;20998;-56
2022/09/08 06:12:14;;;;;;;3.77;0.97;;;20.70;99.90;;;;;;7383614;19;20376;-56
2022/09/08 06:14:44;;;;;;;2.07;0.90;;;20.70;99.90;;;;;;7384370;19;20395;-56
2022/09/08 06:17:16;;;;;;;0.97;0.70;;;20.60;99.90;;;;;;7382164;19;20414;-48
2022/09/08 06:19:46;;;;;;;2.03;0.93;;;20.60;99.90;;;;;;7386539;19;20372;-48
2022/09/08 06:22:15;;;;;;;1.23;0.80;;;20.80;99.90;;;;;;7384391;19;20387;-48
2022/09/08 06:24:45;;;;;;;2.00;0.80;;;20.80;99.90;;;;;;7382187;19;20801;-48
2022/09/08 06:27:21;;;;;;;1.40;1.07;;;20.80;99.90;;;;;;7385145;19;21010;-48
2022/09/08 06:30:03;;;;;;;2.03;0.80;;;20.90;99.90;;;;;;7385632;19;20380;-48
2022/09/08 06:32:40;;;;;;;2.10;0.90;;;20.90;99.90;;;;;;7385275;19;20402;-48
2022/09/08 06:35:15;;;;;;;1.53;0.50;;;20.80;99.90;;;;;;7386071;19;20471;-48
2022/09/08 06:37:50;;;;;;;0.90;0.50;;;20.70;99.90;;;;;;7385327;19;20359;-49
2022/09/08 06:40:25;;;;;;;1.97;0.90;;;20.70;99.90;;;;;;7384740;19;20869;-48
2022/09/08 06:43:01;;;;;;;2.97;0.60;;;20.70;99.90;;;;;;7384109;19;20966;-48
2022/09/08 06:45:36;;;;;;;1.90;1.00;;;20.70;99.90;;;;;;7385755;19;21006;-48
2022/09/08 06:48:29;;;;;;;0.90;0.70;;;20.80;99.90;;;;;;7384653;19;20420;-48
2022/09/08 06:51:09;;;;;;;1.50;0.60;;;20.90;99.90;;;;;;7383163;19;20822;-57
2022/09/08 06:53:44;;;;;;;2.40;0.83;;;21.00;99.00;;;;;;7385345;19;20384;-56
2022/09/08 06:56:27;;;;;;;0.97;0.60;;;21.10;98.20;;;;;;7381850;19;20411;-56
2022/09/08 06:59:03;;;;;;;1.77;0.57;;;21.10;96.90;;;;;;7385153;19;20384;-56
2022/09/08 07:01:42;;;;;;;1.20;0.83;;;21.00;95.40;;;;;;7378869;19;20440;-56
2022/09/08 07:04:29;;;;;;;1.47;0.93;;;21.00;95.70;;;;;;7382597;19;20379;-56
2022/09/08 07:07:03;;;;;;;0.80;0.50;;;20.70;94.10;;;;;;7380088;19;20954;-57
2022/09/08 07:09:39;;;;;;;3.03;0.80;;;20.50;97.10;;;;;;7383517;19;20440;-56
2022/09/08 07:12:20;;;;;;;3.53;0.70;;;20.20;98.10;;;;;;7383943;19;20924;-56
2022/09/08 07:15:09;;;;;;;2.27;0.77;;;20.20;98.70;;;;;;7382717;19;20405;-56
2022/09/08 07:17:47;;;;;;;2.00;0.60;;;20.30;98.10;;;;;;7378007;19;20384;-56
2022/09/08 07:20:20;;;;;;;1.00;0.80;;;20.10;99.30;;;;;;7384091;19;20510;-56
2022/09/08 07:22:54;;;;;;;2.33;0.60;;;20.00;98.90;;;;;;7384472;19;20404;-56
2022/09/08 07:25:28;;;;;;;1.00;0.50;;;20.00;99.90;;;;;;7384507;19;20410;-56
2022/09/08 07:28:05;;;;;;;1.23;0.67;;;20.20;99.70;;;;;;7384345;19;20375;-56
2022/09/08 07:30:38;;;;;;;1.40;0.80;;;20.30;99.80;;;;;;7384954;19;20467;-56
2022/09/08 07:33:17;;;;;;;1.03;0.60;;;20.70;97.80;;;;;;7382543;19;20930;-56
2022/09/08 07:36:10;;;;;;;0.90;0.47;;;20.90;95.80;;;;;;7389306;19;20486;-56
2022/09/08 07:38:46;;;;;;;1.23;0.70;;;21.10;94.50;;;;;;7391964;19;20374;-56
2022/09/08 07:41:22;;;;;;;1.13;0.80;;;21.10;93.30;;;;;;7388746;19;20925;-56
2022/09/08 07:43:53;;;;;;;1.20;0.90;;;21.20;94.10;;;;;;7391434;19;20391;-56
2022/09/08 07:46:42;;;;;;;0.77;0.50;;;21.30;92.20;;;;;;7388775;19;21802;-55
2022/09/08 07:49:20;;;;;;;1.23;0.57;;;21.40;91.40;;;;;;7389404;19;20372;-55
2022/09/08 07:52:00;;;;;;;2.60;0.80;;;21.50;91.20;;;;;;7391258;19;20384;-55
2022/09/08 07:54:53;;;;;;;0.70;0.47;;;21.70;91.20;;;;;;7390250;19;20422;-55
2022/09/08 07:57:34;;;;;;;1.07;0.70;;;22.00;87.30;;;;;;7388468;19;20417;-56
2022/09/08 08:00:08;;;;;;;1.43;0.73;;;22.20;83.60;;;;;;7390797;19;20777;-56
2022/09/08 08:03:11;;;;;;;2.20;1.13;;;22.40;83.90;;;;;;7389114;19;20377;-56
2022/09/08 08:05:46;;;;;;;1.80;0.50;;;22.70;81.70;;;;;;7385406;19;20475;-56
2022/09/08 08:08:27;;;;;;;2.10;0.90;;;22.80;79.60;;;;;;7389343;19;20724;-56
2022/09/08 08:11:06;;;;;;;1.23;0.60;;;22.70;78.40;;;;;;7388898;19;20409;-56
2022/09/08 08:13:57;;;;;;;1.57;0.70;;;22.70;79.20;;;;;;7388814;19;20375;-56
2022/09/08 08:16:39;;;;;;;0.70;0.63;;;22.60;78.50;;;;;;7386062;19;20436;-56
2022/09/08 08:19:24;;;;;;;2.60;0.70;;;22.60;77.70;;;;;;7390064;19;21143;-55
2022/09/08 08:22:01;;;;;;;2.30;0.80;;;22.60;76.70;;;;;;7388919;19;20464;-56
2022/09/08 08:24:41;;;;;;;0.50;0.40;;;22.60;75.00;;;;;;7389719;19;20375;-56
2022/09/08 08:27:23;;;;;;;0.77;0.50;;;22.70;75.60;;;;;;7387625;19;20409;-56
2022/09/08 08:30:06;;;;;;;1.90;0.57;;;23.00;75.30;;;;;;7387771;19;20422;-55
2022/09/08 08:32:39;;;;;;;0.90;0.50;;;23.50;72.80;;;;;;7386840;19;20376;-57
2022/09/08 08:35:15;;;;;;;1.33;0.50;;;23.90;70.70;;;;;;7387087;19;20393;-56
2022/09/08 08:37:49;;;;;;;0.70;0.50;;;24.30;68.10;;;;;;7384898;19;20998;-57
2022/09/08 08:40:32;;;;;;;1.87;0.80;;;24.80;66.30;;;;;;7387854;19;20372;-57
2022/09/08 08:43:23;;;;;;;0.57;0.50;;;25.40;64.80;;;;;;7388347;19;20924;-57
2022/09/08 08:46:10;;;;;;;1.30;0.60;;;25.90;61.90;;;;;;7387649;19;20376;-56
2022/09/08 08:48:56;;;;;;;2.20;0.80;;;25.90;60.10;;;;;;7386337;19;20391;-56
2022/09/08 08:51:50;;;;;;;1.30;0.80;;;26.00;59.40;;;;;;7387144;19;20399;-56
2022/09/08 08:54:40;;;;;;;0.90;0.50;;;26.20;58.40;;;;;;7386179;19;20380;-57
2022/09/08 08:57:26;;;;;;;0.77;0.57;;;26.40;58.00;;;;;;7385704;19;20871;-56
2022/09/08 09:00:07;;;;;;;1.30;0.70;;;26.40;56.90;;;;;;7388110;19;20376;-56
2022/09/08 09:03:12;;;;;;;0.73;0.50;;;26.40;57.40;;;;;;7385972;19;20372;-56
2022/09/08 09:06:03;;;;;;;6.70;1.17;;;26.00;56.80;;;;;;7387019;19;20421;-56
2022/09/08 09:09:00;;;;;;;2.70;0.90;;;25.70;57.30;;;;;;7386761;19;20740;-56
2022/09/08 09:11:53;;;;;;;2.43;1.00;;;25.70;57.60;;;;;;7386310;19;20906;-56
2022/09/08 09:14:55;;;;;;;1.57;0.67;;;25.60;57.60;;;;;;7385151;19;20512;-56
2022/09/08 09:17:43;;;;;;;0.87;0.63;;;25.80;57.80;;;;;;7382712;19;20841;-56
2022/09/08 09:20:37;;;;;;;1.50;0.87;;;26.10;56.90;;;;;;7388396;19;20368;-48
2022/09/08 09:23:15;;;;;;;2.60;0.70;;;26.30;56.80;;;;;;7388044;19;20376;-48
2022/09/08 09:25:57;;;;;;;1.30;0.70;;;26.10;56.10;;;;;;7386106;19;20875;-48
2022/09/08 09:28:54;;;;;;;2.60;0.80;;;25.70;56.30;;;;;;7386578;19;20392;-48
2022/09/08 09:31:52;;;;;;;2.00;1.00;;;25.00;56.80;;;;;;7385693;19;20391;-48
2022/09/08 09:34:59;;;;;;;0.70;0.70;;;24.50;58.50;;;;;;7384455;19;20396;-48
2022/09/08 09:38:01;;;;;;;1.53;0.70;;;24.10;58.80;;;;;;7384105;19;20445;-48
2022/09/08 09:40:47;;;;;;;1.50;0.77;;;23.60;60.00;;;;;;7385747;19;20833;-47
2022/09/08 09:43:35;;;;;;;0.73;0.60;;;23.50;61.50;;;;;;7387886;19;20376;-48
2022/09/08 09:46:31;;;;;;;2.47;0.70;;;23.50;61.00;;;;;;7387173;19;20413;-48
2022/09/08 09:49:35;;;;;;;3.47;0.80;;;23.70;61.60;;;;;;7387632;19;20383;-48
2022/09/08 09:52:17;;;;;;;2.97;1.70;;;24.10;59.80;;;;;;7383953;19;20399;-56
2022/09/08 09:55:04;;;;;;;1.47;1.03;;;24.50;59.60;;;;;;7385304;19;20376;-57
2022/09/08 09:58:13;;;;;;;1.80;1.00;;;24.60;58.20;;;;;;7385395;19;20929;-56
2022/09/08 10:01:03;;;;;;;1.10;0.70;;;24.90;58.30;;;;;;7384907;19;20432;-56
2022/09/08 10:03:55;;;;;;;1.23;0.67;;;25.20;57.60;;;;;;7383905;19;20401;-57
2022/09/08 10:06:35;;;;;;;3.33;0.90;;;26.00;55.90;;;;;;7380690;19;20400;-57
2022/09/08 10:09:37;;;;;;;1.10;0.97;;;26.90;53.60;;;;;;7385811;19;20920;-57
2022/09/08 10:12:52;;;;;;;1.83;0.90;;;28.20;50.50;;;;;;7386284;19;20423;-57
2022/09/08 10:16:06;;;;;;;1.80;1.10;;;29.40;48.60;;;;;;7388202;19;20376;-57
2022/09/08 10:19:22;;;;;;;4.43;1.37;;;29.30;46.00;;;;;;7382942;19;20467;-57
2022/09/08 10:22:31;;;;;;;4.10;0.90;;;29.10;46.50;;;;;;7384674;19;20380;-49
2022/09/08 10:25:36;;;;;;;2.10;1.03;;;28.90;46.10;;;;;;7383852;19;20489;-49
2022/09/08 10:28:40;;;;;;;4.60;4.00;;;28.10;47.50;;;;;;7383807;19;20758;-48
2022/09/08 10:31:39;;;;;;;1.30;1.20;;;27.20;49.20;;;;;;7383958;19;20839;-49
2022/09/08 10:34:39;;;;;;;2.13;0.83;;;26.80;50.30;;;;;;7383881;19;20371;-48
2022/09/08 10:37:15;;;;;;;2.40;1.53;;;26.30;51.20;;;;;;7383703;19;20416;-48
2022/09/08 10:40:16;;;;;;;1.53;0.80;;;25.80;51.70;;;;;;7384419;19;20390;-49
2022/09/08 10:42:49;;;;;;;7.40;4.43;;;25.70;52.50;;;;;;7385099;19;20946;-48
2022/09/08 10:45:36;;;;;;;1.50;0.80;;;25.30;53.20;;;;;;7384846;19;20802;-49
2022/09/08 10:48:51;;;;;;;3.30;1.37;;;25.30;54.30;;;;;;7385765;19;20416;-49
2022/09/08 10:51:44;;;;;;;1.37;0.93;;;25.40;52.90;;;;;;7386463;19;20376;-48
2022/09/08 10:54:47;;;;;;;3.07;0.80;;;25.10;53.10;;;;;;7384169;19;20388;-48
2022/09/08 10:57:30;;;;;;;1.00;0.90;;;25.10;53.70;;;;;;7381308;19;20483;-48
2022/09/08 11:00:10;;;;;;;2.10;0.97;;;24.90;54.10;;;;;;7382889;19;20369;-48
2022/09/08 11:02:54;;;;;;;4.50;1.30;;;25.00;54.60;;;;;;7385135;19;20372;-48
2022/09/08 11:05:56;;;;;;;1.03;0.70;;;25.10;55.40;;;;;;7384591;19;20380;-48
2022/09/08 11:08:48;;;;;;;5.07;1.10;;;25.00;54.70;;;;;;7380917;19;20406;-48
2022/09/08 11:11:35;;;;;;;1.73;0.67;;;25.00;55.10;;;;;;7390530;19;20383;-49
2022/09/08 11:14:08;;;;;;;0.87;0.60;;;24.70;55.10;;;;;;7389858;19;20387;-48
2022/09/08 11:17:07;;;;;;;1.50;1.13;;;24.80;55.60;;;;;;7390562;19;20996;-48
2022/09/08 11:19:46;;;;;;;1.53;1.00;;;24.90;55.30;;;;;;7392944;19;20367;-48
2022/09/08 11:22:34;;;;;;;1.33;0.93;;;25.00;54.90;;;;;;7390694;19;20741;-48
2022/09/08 11:25:34;;;;;;;3.37;0.83;;;24.90;54.80;;;;;;7389902;19;20469;-48
2022/09/08 11:28:23;;;;;;;1.67;0.80;;;25.10;55.00;;;;;;7389026;19;20848;-48
2022/09/08 11:31:06;;;;;;;1.20;0.67;;;25.20;55.10;;;;;;7390157;19;20388;-48
2022/09/08 11:33:51;;;;;;;4.33;1.03;;;25.60;56.10;;;;;;7391153;19;20364;-48
2022/09/08 11:36:52;;;;;;;1.63;0.70;;;26.30;55.30;;;;;;7388681;19;20376;-48
2022/09/08 11:39:35;;;;;;;2.23;1.17;;;26.90;54.70;;;;;;7387668;19;20409;-49
2022/09/08 11:42:26;;;;;;;1.63;0.60;;;27.20;54.10;;;;;;7389371;19;20937;-49
2022/09/08 11:45:05;;;;;;;2.80;1.50;;;27.20;53.60;;;;;;7391611;19;20512;-48
2022/09/08 11:48:04;;;;;;;4.10;3.60;;;26.90;53.30;;;;;;7389794;19;20372;-48
2022/09/08 11:50:40;;;;;;;4.03;1.77;;;26.60;54.20;;;;;;7390718;19;20375;-48
2022/09/08 11:53:38;;;;;;;7.93;3.40;;;26.30;54.40;;;;;;7389564;19;20383;-49
2022/09/08 11:56:30;;;;;;;1.90;1.20;;;26.30;54.30;;;;;;7390608;19;20914;-48
2022/09/08 11:59:19;;;;;;;4.30;1.30;;;26.20;53.50;;;;;;7385608;19;20384;-49
2022/09/08 12:02:07;;;;;;;1.80;0.80;;;25.90;53.90;;;;;;7362248;19;20426;-49
2022/09/08 12:05:02;;;;;;;1.60;0.90;;;25.90;53.50;;;;;;7388178;19;20409;-49
2022/09/08 12:07:58;;;;;;;3.07;1.10;;;25.90;53.60;;;;;;7385820;19;20380;-48
2022/09/08 12:10:51;;;;;;;3.07;2.30;;;25.80;53.20;;;;;;7389647;19;20818;-48
2022/09/08 12:13:30;;;;;;;3.70;1.20;;;25.70;53.10;;;;;;7387890;19;20384;-48
2022/09/08 12:16:13;;;;;;;2.17;0.90;;;25.40;53.30;;;;;;7390241;19;20982;-48
2022/09/08 12:19:17;;;;;;;3.20;1.10;;;25.30;53.40;;;;;;7386830;19;20411;-48
2022/09/08 12:22:16;;;;;;;3.30;1.30;;;25.30;53.40;;;;;;7384773;19;20400;-49
2022/09/08 12:25:02;;;;;;;1.90;0.50;;;25.40;53.00;;;;;;7387972;19;20376;-49
2022/09/08 12:27:49;;;;;;;1.50;0.50;;;25.10;53.20;;;;;;7389101;19;20763;-49
2022/09/08 12:30:21;;;;;;;1.40;0.57;;;25.20;53.20;;;;;;7389265;19;20416;-57
2022/09/08 12:33:34;;;;;;;1.03;0.80;;;25.20;53.00;;;;;;7386867;19;20400;-56
2022/09/08 12:36:12;;;;;;;4.30;0.80;;;25.20;53.50;;;;;;7388090;19;21004;-56
2022/09/08 12:39:06;;;;;;;5.83;0.90;;;24.80;55.20;;;;;;7388357;19;20427;-56
2022/09/08 12:41:48;;;;;;;1.73;0.70;;;24.70;56.00;;;;;;7387691;19;20380;-56
2022/09/08 12:44:39;;;;;;;2.30;0.90;;;24.50;57.00;;;;;;7388777;19;20368;-58
2022/09/08 12:47:26;;;;;;;1.43;0.63;;;24.70;56.80;;;;;;7388538;19;20368;-56
2022/09/08 12:50:13;;;;;;;1.33;0.60;;;25.20;55.60;;;;;;7388978;19;20444;-56
2022/09/08 12:53:03;;;;;;;2.73;0.70;;;25.50;54.10;;;;;;7386471;19;20372;-57
2022/09/08 12:55:39;;;;;;;2.40;0.90;;;26.10;53.80;;;;;;7389075;19;20833;-56
2022/09/08 12:58:08;;;;;;;1.70;0.70;;;27.10;51.60;;;;;;7386129;19;20467;-56
2022/09/08 13:00:44;;;;;;;2.03;0.70;;;27.70;49.60;;;;;;7386594;19;20435;-48
2022/09/08 13:03:35;;;;;;;1.13;0.70;;;28.40;48.00;;;;;;7388728;19;20966;-48
2022/09/08 13:06:38;;;;;;;1.03;0.60;;;28.70;46.40;;;;;;7384933;19;21297;-48
2022/09/08 13:09:12;;;;;;;2.00;0.80;;;28.50;46.90;;;;;;7386435;19;20390;-48
2022/09/08 13:12:14;;;;;;;1.60;0.60;;;28.00;47.00;;;;;;7387711;19;20977;-49
2022/09/08 13:14:59;;;;;;;1.43;0.83;;;27.80;47.30;;;;;;7385580;19;20396;-48
2022/09/08 13:17:36;;;;;;;2.63;0.70;;;27.60;47.70;;;;;;7356466;19;20467;-48
2022/09/08 13:20:23;;;;;;;2.60;0.80;;;27.40;47.30;;;;;;7386732;19;20375;-49
2022/09/08 13:23:03;;;;;;;2.20;0.63;;;27.30;47.10;;;;;;7386670;19;20714;-48
2022/09/08 13:25:40;;;;;;;1.93;0.87;;;27.00;47.40;;;;;;7385561;19;20934;-48
2022/09/08 13:28:24;;;;;;;0.90;0.63;;;26.60;48.10;;;;;;7386475;19;20727;-48
2022/09/08 13:31:03;;;;;;;1.03;0.60;;;26.50;48.60;;;;;;7385562;19;20368;-49
2022/09/08 13:33:49;;;;;;;1.60;0.60;;;26.40;48.30;;;;;;7386488;19;20372;-49
2022/09/08 13:36:33;;;;;;;1.03;0.50;;;26.40;48.50;;;;;;7387189;19;20409;-49
2022/09/08 13:39:26;;;;;;;2.60;0.80;;;26.30;49.00;;;;;;7385510;19;20497;-49
2022/09/08 13:42:12;;;;;;;2.30;0.70;;;26.20;49.20;;;;;;7386585;19;20384;-48
2022/09/08 13:45:15;;;;;;;1.37;0.80;;;25.80;49.90;;;;;;7384893;19;20845;-49
2022/09/08 13:48:04;;;;;;;0.60;0.40;;;26.10;49.90;;;;;;7384963;19;20380;-48
2022/09/08 13:51:05;;;;;;;5.93;1.57;;;26.40;49.40;;;;;;7385790;19;20816;-48
2022/09/08 13:54:00;;;;;;;1.07;0.57;;;26.70;48.80;;;;;;7385876;19;20476;-49
2022/09/08 13:56:42;;;;;;;1.03;0.60;;;26.80;46.70;;;;;;7385507;19;20372;-48
2022/09/08 13:59:20;;;;;;;0.83;0.60;;;26.60;46.60;;;;;;7383834;19;20372;-48
2022/09/08 14:01:51;;;;;;;3.00;0.60;;;26.40;46.90;;;;;;7385144;19;20440;-57